Livermore, Colorado
Current Conditions -  °F | °C
As of 1:55 AM on Friday 31 Oct 2014 (Local Time) from KFNL Reporting Station
Clear Clear  
Wind Chill: 31°   Ceiling: Unl
Heat Index: 37°   Visibility: 10mi
Dew Point: 27°   Wind: 8mph
Humidity: 65%   Direction: 60°ENE
Pressure: 30.4"   Gusts: NA
Location:  40.79°N, 105.22°W
Report Text: KFNL 310755Z AUTO 06007KT 10SM CLR 03/M03 A3040 RMK AO1
Loading
Personal Weather Stations






























Interactive Weather Map
Tropical Storm Tracking
New forecast layout! Learn more

10-Day Weather Forecast

Advertisements
Track Severe Weather on mobile